sensor_id;sensor_type;location;lat;lon;timestamp;temperature;humidity
52397;DHT22;38322;53.108;6.308;2023-04-01T05:03:11;9.30;99.90
52397;DHT22;38322;53.108;6.308;2023-04-01T05:05:38;9.20;99.90
52397;DHT22;38322;53.108;6.308;2023-04-01T05:08:04;9.20;99.90
52397;DHT22;38322;53.108;6.308;2023-04-01T05:10:30;9.30;99.90
52397;DHT22;38322;53.108;6.308;2023-04-01T05:12:57;9.30;99.90
52397;DHT22;38322;53.108;6.308;2023-04-01T05:15:24;9.30;99.90
52397;DHT22;38322;53.108;6.308;2023-04-01T05:17:50;9.30;99.90
52397;DHT22;38322;53.108;6.308;2023-04-01T05:20:16;9.20;99.90
52397;DHT22;38322;53.108;6.308;2023-04-01T05:22:43;9.30;99.90
52397;DHT22;38322;53.108;6.308;2023-04-01T05:25:09;9.30;99.90
52397;DHT22;38322;53.108;6.308;2023-04-01T05:27:35;9.30;99.90
52397;DHT22;38322;53.108;6.308;2023-04-01T05:30:01;9.30;99.90
52397;DHT22;38322;53.108;6.308;2023-04-01T05:32:27;9.30;99.90
52397;DHT22;38322;53.108;6.308;2023-04-01T05:34:53;9.30;99.90
52397;DHT22;38322;53.108;6.308;2023-04-01T05:37:19;9.30;99.90
52397;DHT22;38322;53.108;6.308;2023-04-01T05:39:45;9.30;99.90
52397;DHT22;38322;53.108;6.308;2023-04-01T05:42:11;9.30;99.90
52397;DHT22;38322;53.108;6.308;2023-04-01T05:44:37;9.30;99.90
52397;DHT22;38322;53.108;6.308;2023-04-01T05:47:04;9.40;99.90
52397;DHT22;38322;53.108;6.308;2023-04-01T05:49:30;9.30;99.90
52397;DHT22;38322;53.108;6.308;2023-04-01T05:51:56;9.30;99.90
52397;DHT22;38322;53.108;6.308;2023-04-01T05:54:22;9.30;99.90
52397;DHT22;38322;53.108;6.308;2023-04-01T05:56:48;9.30;99.90
52397;DHT22;38322;53.108;6.308;2023-04-01T05:59:15;9.30;99.90
52397;DHT22;38322;53.108;6.308;2023-04-01T06:01:41;9.30;99.90
52397;DHT22;38322;53.108;6.308;2023-04-01T06:04:12;9.40;99.90
52397;DHT22;38322;53.108;6.308;2023-04-01T06:06:39;9.30;99.90
52397;DHT22;38322;53.108;6.308;2023-04-01T06:14:46;9.40;99.90
52397;DHT22;38322;53.108;6.308;2023-04-01T06:17:37;9.40;99.90
52397;DHT22;38322;53.108;6.308;2023-04-01T06:20:20;9.40;99.90
52397;DHT22;38322;53.108;6.308;2023-04-01T06:22:52;9.40;99.90
52397;DHT22;38322;53.108;6.308;2023-04-01T06:25:34;9.40;99.90
52397;DHT22;38322;53.108;6.308;2023-04-01T06:30:50;9.40;99.90
52397;DHT22;38322;53.108;6.308;2023-04-01T06:33:29;9.40;99.90
52397;DHT22;38322;53.108;6.308;2023-04-01T06:44:22;9.50;99.90
52397;DHT22;38322;53.108;6.308;2023-04-01T06:46:58;9.50;99.90
52397;DHT22;38322;53.108;6.308;2023-04-01T06:54:42;9.50;99.90
52397;DHT22;38322;53.108;6.308;2023-04-01T06:57:23;9.50;99.90
52397;DHT22;38322;53.108;6.308;2023-04-01T06:59:51;9.50;99.90
52397;DHT22;38322;53.108;6.308;2023-04-01T07:04:51;9.60;99.90
52397;DHT22;38322;53.108;6.308;2023-04-01T07:07:37;9.70;99.90
52397;DHT22;38322;53.108;6.308;2023-04-01T07:10:11;9.80;99.90
52397;DHT22;38322;53.108;6.308;2023-04-01T07:12:46;9.80;99.90
52397;DHT22;38322;53.108;6.308;2023-04-01T07:15:26;9.90;99.90
52397;DHT22;38322;53.108;6.308;2023-04-01T07:17:56;9.90;99.90
52397;DHT22;38322;53.108;6.308;2023-04-01T07:20:30;10.00;99.90
52397;DHT22;38322;53.108;6.308;2023-04-01T07:22:59;10.00;99.90
52397;DHT22;38322;53.108;6.308;2023-04-01T07:25:31;10.00;99.90
52397;DHT22;38322;53.108;6.308;2023-04-01T07:28:03;10.00;99.90
52397;DHT22;38322;53.108;6.308;2023-04-01T07:30:39;10.00;99.90
52397;DHT22;38322;53.108;6.308;2023-04-01T07:33:23;10.00;99.90
52397;DHT22;38322;53.108;6.308;2023-04-01T07:36:00;10.00;99.90
52397;DHT22;38322;53.108;6.308;2023-04-01T07:43:51;10.00;99.90
52397;DHT22;38322;53.108;6.308;2023-04-01T07:52:15;10.00;99.90
52397;DHT22;38322;53.108;6.308;2023-04-01T07:57:53;9.90;99.90
52397;DHT22;38322;53.108;6.308;2023-04-01T08:00:23;10.00;99.90
52397;DHT22;38322;53.108;6.308;2023-04-01T08:05:52;10.00;99.90
52397;DHT22;38322;53.108;6.308;2023-04-01T08:08:28;10.00;99.90
52397;DHT22;38322;53.108;6.308;2023-04-01T08:11:08;10.00;99.90
52397;DHT22;38322;53.108;6.308;2023-04-01T08:13:57;9.90;99.90
52397;DHT22;38322;53.108;6.308;2023-04-01T08:16:42;10.00;99.90
52397;DHT22;38322;53.108;6.308;2023-04-01T08:19:23;10.00;99.90
52397;DHT22;38322;53.108;6.308;2023-04-01T08:21:52;10.00;99.90
52397;DHT22;38322;53.108;6.308;2023-04-01T08:24:27;10.00;99.90
52397;DHT22;38322;53.108;6.308;2023-04-01T08:26:58;9.90;99.90
52397;DHT22;38322;53.108;6.308;2023-04-01T08:29:40;10.00;99.90
52397;DHT22;38322;53.108;6.308;2023-04-01T08:32:12;10.00;99.90
52397;DHT22;38322;53.108;6.308;2023-04-01T08:34:46;10.00;99.90
52397;DHT22;38322;53.108;6.308;2023-04-01T08:37:19;10.00;99.90
52397;DHT22;38322;53.108;6.308;2023-04-01T08:39:50;9.90;99.90
52397;DHT22;38322;53.108;6.308;2023-04-01T08:53:14;10.10;99.90
52397;DHT22;38322;53.108;6.308;2023-04-01T08:56:13;10.20;99.90
52397;DHT22;38322;53.108;6.308;2023-04-01T09:01:33;10.30;99.90
52397;DHT22;38322;53.108;6.308;2023-04-01T09:04:05;10.30;99.90
52397;DHT22;38322;53.108;6.308;2023-04-01T09:07:02;10.40;99.90
52397;DHT22;38322;53.108;6.308;2023-04-01T09:09:40;10.40;99.90
52397;DHT22;38322;53.108;6.308;2023-04-01T09:12:43;10.50;99.90
52397;DHT22;38322;53.108;6.308;2023-04-01T09:15:26;10.50;99.90
52397;DHT22;38322;53.108;6.308;2023-04-01T09:18:12;10.50;99.90
52397;DHT22;38322;53.108;6.308;2023-04-01T09:20:50;10.50;99.90
52397;DHT22;38322;53.108;6.308;2023-04-01T09:23:39;10.60;99.90
52397;DHT22;38322;53.108;6.308;2023-04-01T09:39:36;10.80;99.90
52397;DHT22;38322;53.108;6.308;2023-04-01T09:44:57;10.60;99.90
52397;DHT22;38322;53.108;6.308;2023-04-01T09:52:38;10.20;99.90
52397;DHT22;38322;53.108;6.308;2023-04-01T10:04:10;9.90;99.90
52397;DHT22;38322;53.108;6.308;2023-04-01T10:10:08;9.80;99.90
52397;DHT22;38322;53.108;6.308;2023-04-01T10:13:22;9.70;99.90
52397;DHT22;38322;53.108;6.308;2023-04-01T10:19:12;9.60;99.90
52397;DHT22;38322;53.108;6.308;2023-04-01T10:22:04;9.60;99.90
52397;DHT22;38322;53.108;6.308;2023-04-01T10:41:09;9.80;99.90
52397;DHT22;38322;53.108;6.308;2023-04-01T10:44:06;9.70;99.90
52397;DHT22;38322;53.108;6.308;2023-04-01T10:54:47;9.80;99.90
52397;DHT22;38322;53.108;6.308;2023-04-01T10:57:28;9.80;99.90
52397;DHT22;38322;53.108;6.308;2023-04-01T11:02:57;9.70;99.90
52397;DHT22;38322;53.108;6.308;2023-04-01T11:06:17;9.80;99.90
52397;DHT22;38322;53.108;6.308;2023-04-01T11:12:03;9.70;99.90
52397;DHT22;38322;53.108;6.308;2023-04-01T11:17:33;9.60;99.90
52397;DHT22;38322;53.108;6.308;2023-04-01T11:23:14;9.70;99.90
52397;DHT22;38322;53.108;6.308;2023-04-01T11:28:47;9.60;99.90
52397;DHT22;38322;53.108;6.308;2023-04-01T11:31:53;9.60;99.90
52397;DHT22;38322;53.108;6.308;2023-04-01T11:34:50;9.60;99.90
52397;DHT22;38322;53.108;6.308;2023-04-01T11:40:11;9.60;99.90
52397;DHT22;38322;53.108;6.308;2023-04-01T11:42:55;9.60;99.90
52397;DHT22;38322;53.108;6.308;2023-04-01T11:45:25;9.60;99.90
52397;DHT22;38322;53.108;6.308;2023-04-01T11:48:13;9.60;99.90
52397;DHT22;38322;53.108;6.308;2023-04-01T11:53:41;9.50;99.90
52397;DHT22;38322;53.108;6.308;2023-04-01T12:01:44;9.60;99.90
52397;DHT22;38322;53.108;6.308;2023-04-01T12:04:33;9.60;99.90
52397;DHT22;38322;53.108;6.308;2023-04-01T12:07:40;9.70;99.90
52397;DHT22;38322;53.108;6.308;2023-04-01T12:10:24;9.70;99.90
52397;DHT22;38322;53.108;6.308;2023-04-01T12:18:18;9.80;99.90
52397;DHT22;38322;53.108;6.308;2023-04-01T12:21:09;9.80;99.90
52397;DHT22;38322;53.108;6.308;2023-04-01T12:23:48;9.90;99.90
52397;DHT22;38322;53.108;6.308;2023-04-01T12:26:28;10.00;99.90
52397;DHT22;38322;53.108;6.308;2023-04-01T12:34:53;10.10;99.90
52397;DHT22;38322;53.108;6.308;2023-04-01T12:42:55;9.80;99.90
52397;DHT22;38322;53.108;6.308;2023-04-01T12:45:31;9.80;99.90
52397;DHT22;38322;53.108;6.308;2023-04-01T12:48:27;9.90;99.90
52397;DHT22;38322;53.108;6.308;2023-04-01T13:02:02;9.90;99.90
52397;DHT22;38322;53.108;6.308;2023-04-01T13:04:44;9.90;99.90
52397;DHT22;38322;53.108;6.308;2023-04-01T13:10:36;9.80;99.90
52397;DHT22;38322;53.108;6.308;2023-04-01T13:13:20;9.80;99.90
52397;DHT22;38322;53.108;6.308;2023-04-01T13:16:01;9.60;99.90
52397;DHT22;38322;53.108;6.308;2023-04-01T13:18:52;9.50;99.90
52397;DHT22;38322;53.108;6.308;2023-04-01T13:21:44;9.50;99.90
52397;DHT22;38322;53.108;6.308;2023-04-01T13:24:20;9.40;99.90
52397;DHT22;38322;53.108;6.308;2023-04-01T13:32:56;9.50;99.90
52397;DHT22;38322;53.108;6.308;2023-04-01T13:35:31;9.50;99.90
52397;DHT22;38322;53.108;6.308;2023-04-01T13:38:04;9.50;99.90
52397;DHT22;38322;53.108;6.308;2023-04-01T13:46:46;9.30;99.90
52397;DHT22;38322;53.108;6.308;2023-04-01T13:52:18;9.30;99.90
52397;DHT22;38322;53.108;6.308;2023-04-01T13:57:45;9.30;99.90
52397;DHT22;38322;53.108;6.308;2023-04-01T14:00:38;9.30;99.90
52397;DHT22;38322;53.108;6.308;2023-04-01T14:08:56;9.30;99.90
52397;DHT22;38322;53.108;6.308;2023-04-01T14:12:00;9.20;99.90
52397;DHT22;38322;53.108;6.308;2023-04-01T14:14:43;9.20;99.90
52397;DHT22;38322;53.108;6.308;2023-04-01T14:20:03;9.20;99.90
52397;DHT22;38322;53.108;6.308;2023-04-01T14:22:42;9.20;99.90
52397;DHT22;38322;53.108;6.308;2023-04-01T14:25:51;9.10;99.90
52397;DHT22;38322;53.108;6.308;2023-04-01T14:31:23;9.10;99.90
52397;DHT22;38322;53.108;6.308;2023-04-01T14:34:19;9.10;99.90
52397;DHT22;38322;53.108;6.308;2023-04-01T14:45:42;8.90;99.90
52397;DHT22;38322;53.108;6.308;2023-04-01T14:48:29;9.00;99.90
52397;DHT22;38322;53.108;6.308;2023-04-01T14:51:08;9.00;99.90
52397;DHT22;38322;53.108;6.308;2023-04-01T14:53:39;8.90;99.90
52397;DHT22;38322;53.108;6.308;2023-04-01T14:56:08;8.80;99.90
52397;DHT22;38322;53.108;6.308;2023-04-01T14:58:47;8.80;99.90
52397;DHT22;38322;53.108;6.308;2023-04-01T15:01:30;8.80;99.90
52397;DHT22;38322;53.108;6.308;2023-04-01T15:07:06;8.70;99.90
52397;DHT22;38322;53.108;6.308;2023-04-01T15:14:50;8.60;99.90
52397;DHT22;38322;53.108;6.308;2023-04-01T15:17:36;8.60;99.90
52397;DHT22;38322;53.108;6.308;2023-04-01T15:23:23;8.50;99.90
52397;DHT22;38322;53.108;6.308;2023-04-01T15:26:11;8.50;99.90
52397;DHT22;38322;53.108;6.308;2023-04-01T15:29:11;8.40;99.90
52397;DHT22;38322;53.108;6.308;2023-04-01T15:32:00;8.30;99.90
52397;DHT22;38322;53.108;6.308;2023-04-01T15:34:38;8.20;99.90
52397;DHT22;38322;53.108;6.308;2023-04-01T15:37:14;8.20;99.90
52397;DHT22;38322;53.108;6.308;2023-04-01T15:42:43;8.10;99.90
52397;DHT22;38322;53.108;6.308;2023-04-01T15:45:18;8.00;99.90
52397;DHT22;38322;53.108;6.308;2023-04-01T15:48:01;8.10;99.90
52397;DHT22;38322;53.108;6.308;2023-04-01T15:55:57;7.90;99.90
52397;DHT22;38322;53.108;6.308;2023-04-01T16:01:10;7.90;99.90
52397;DHT22;38322;53.108;6.308;2023-04-01T16:08:47;7.80;99.90
52397;DHT22;38322;53.108;6.308;2023-04-01T16:11:25;7.70;99.90
52397;DHT22;38322;53.108;6.308;2023-04-01T16:14:07;7.60;99.90
52397;DHT22;38322;53.108;6.308;2023-04-01T16:16:41;7.60;99.90
52397;DHT22;38322;53.108;6.308;2023-04-01T16:19:36;7.60;99.90
52397;DHT22;38322;53.108;6.308;2023-04-01T16:22:17;7.60;99.90
52397;DHT22;38322;53.108;6.308;2023-04-01T16:24:59;7.50;99.90
52397;DHT22;38322;53.108;6.308;2023-04-01T16:27:32;7.50;99.90
52397;DHT22;38322;53.108;6.308;2023-04-01T16:30:16;7.40;99.90
52397;DHT22;38322;53.108;6.308;2023-04-01T16:33:01;7.50;99.90
52397;DHT22;38322;53.108;6.308;2023-04-01T16:38:22;7.40;99.90
52397;DHT22;38322;53.108;6.308;2023-04-01T16:41:14;7.40;99.90
52397;DHT22;38322;53.108;6.308;2023-04-01T16:43:43;7.30;99.90
52397;DHT22;38322;53.108;6.308;2023-04-01T16:46:36;7.30;99.90
52397;DHT22;38322;53.108;6.308;2023-04-01T16:54:14;7.30;99.90
52397;DHT22;38322;53.108;6.308;2023-04-01T16:56:47;7.20;99.90
52397;DHT22;38322;53.108;6.308;2023-04-01T16:59:24;7.20;99.90
52397;DHT22;38322;53.108;6.308;2023-04-01T17:01:57;7.20;99.90
52397;DHT22;38322;53.108;6.308;2023-04-01T17:13:10;7.10;99.90
52397;DHT22;38322;53.108;6.308;2023-04-01T17:18:49;6.90;99.90
52397;DHT22;38322;53.108;6.308;2023-04-01T17:21:47;6.90;99.90
52397;DHT22;38322;53.108;6.308;2023-04-01T17:27:23;6.80;99.90
52397;DHT22;38322;53.108;6.308;2023-04-01T17:35:39;6.60;99.90
52397;DHT22;38322;53.108;6.308;2023-04-01T17:41:10;6.60;99.90
52397;DHT22;38322;53.108;6.308;2023-04-01T17:43:52;6.60;99.90
52397;DHT22;38322;53.108;6.308;2023-04-01T17:51:59;6.60;99.90
52397;DHT22;38322;53.108;6.308;2023-04-01T17:59:38;6.50;99.90
52397;DHT22;38322;53.108;6.308;2023-04-01T18:02:21;6.60;99.90
52397;DHT22;38322;53.108;6.308;2023-04-01T18:07:57;6.50;99.90
52397;DHT22;38322;53.108;6.308;2023-04-01T18:10:40;6.50;99.90
52397;DHT22;38322;53.108;6.308;2023-04-01T18:18:43;6.50;99.90
52397;DHT22;38322;53.108;6.308;2023-04-01T18:24:02;6.40;99.90
52397;DHT22;38322;53.108;6.308;2023-04-01T18:26:33;6.40;99.90
52397;DHT22;38322;53.108;6.308;2023-04-01T18:31:38;6.40;99.90
52397;DHT22;38322;53.108;6.308;2023-04-01T18:36:59;6.40;99.90
52397;DHT22;38322;53.108;6.308;2023-04-01T18:39:40;6.40;99.90
52397;DHT22;38322;53.108;6.308;2023-04-01T18:42:22;6.40;99.90
52397;DHT22;38322;53.108;6.308;2023-04-01T18:45:10;6.30;99.90
52397;DHT22;38322;53.108;6.308;2023-04-01T18:50:39;6.20;99.90
52397;DHT22;38322;53.108;6.308;2023-04-01T18:53:24;6.30;99.90
52397;DHT22;38322;53.108;6.308;2023-04-01T18:56:01;6.20;99.90
52397;DHT22;38322;53.108;6.308;2023-04-01T18:58:35;6.20;99.90
52397;DHT22;38322;53.108;6.308;2023-04-01T19:01:15;6.20;99.90
52397;DHT22;38322;53.108;6.308;2023-04-01T19:03:57;6.20;99.90
52397;DHT22;38322;53.108;6.308;2023-04-01T19:06:35;6.20;99.90
52397;DHT22;38322;53.108;6.308;2023-04-01T19:11:54;6.10;99.90
52397;DHT22;38322;53.108;6.308;2023-04-01T19:14:40;6.10;99.90
52397;DHT22;38322;53.108;6.308;2023-04-01T19:17:16;6.10;99.90
52397;DHT22;38322;53.108;6.308;2023-04-01T19:19:53;6.00;99.90
52397;DHT22;38322;53.108;6.308;2023-04-01T19:25:15;5.90;99.90
52397;DHT22;38322;53.108;6.308;2023-04-01T19:27:51;5.90;99.90
52397;DHT22;38322;53.108;6.308;2023-04-01T19:30:36;5.90;99.90
52397;DHT22;38322;53.108;6.308;2023-04-01T19:38:40;5.80;99.90
52397;DHT22;38322;53.108;6.308;2023-04-01T19:41:20;5.80;99.90
52397;DHT22;38322;53.108;6.308;2023-04-01T19:44:19;5.80;99.90
52397;DHT22;38322;53.108;6.308;2023-04-01T19:46:53;5.70;99.90
52397;DHT22;38322;53.108;6.308;2023-04-01T19:52:00;5.60;99.90
52397;DHT22;38322;53.108;6.308;2023-04-01T19:54:53;5.60;99.90
52397;DHT22;38322;53.108;6.308;2023-04-01T19:57:34;5.70;99.90
52397;DHT22;38322;53.108;6.308;2023-04-01T20:00:14;5.60;99.90
